Latest Coastal Weather Observations for Cape Nelson

IDS60701

Issued at 4:11 pm CST Saturday 27 August 2016 (issued every 10 minutes, with the page automatically refreshed every 10 minutes)

About coastal observations | Map of coastal stations | Coastal observations for SA | Marine services | Other Formats
Station Details ID: 090184 Name: CAPE NELSON LIGHTHOUSE Lat: -38.43 Lon: 141.54 Height: 45.4 m
Data from the previous 72 hours. | See also: Recent months at Cape Nelson
Date/Time
CST
Temp
°C
Wind Pressure Rain since
9am
mm
Weather Cloud Vis
km
Sea
Height
m
Swell
Dir  Spd
kts
Gust
kts
hPa Trend Height
m
Period
s
Dir
27/04:00pm 13.8 NW 17 25 1015.6 - 0.0 - - - - - - -
27/03:30pm 14.0 NW 18 25 1015.9 - 0.0 - - - - - - -
27/03:19pm 14.4 NW 18 28 1016.0 - 0.0 - - - - - - -
27/03:00pm 14.2 NW 17 25 1016.1 - 0.0 - - - - - - -
27/02:30pm 14.4 NW 18 25 1016.3 - 0.0 - - - - - - -
27/02:00pm 14.0 NW 17 25 1016.5 - 0.0 - - - - - - -
27/01:30pm 13.5 NNW 15 22 1016.6 - 0.0 - - - - - - -
27/01:00pm 13.2 NW 16 24 1017.6 - 0.0 - - - - - - -
27/12:30pm 14.3 NW 18 26 1017.8 - 0.0 - - - - - - -
27/12:04pm 14.0 NW 19 30 1018.0 - 0.0 - - - - - - -
27/12:00pm 13.9 NW 18 24 1018.1 - 0.0 - - - - - - -
27/11:30am 13.3 NW 19 27 1018.4 - 0.0 - - - - - - -
27/11:01am 13.1 NNW 17 27 1018.5 - 0.0 - - - - - - -
27/11:00am 13.0 NW 18 27 1018.4 - 0.0 - - - - - - -
27/10:30am 12.7 NNW 14 21 1018.9 - 0.0 - - - - - - -
27/10:00am 12.3 NNW 14 22 1018.9 - 0.0 - - - - - - -
27/09:30am 11.6 NNW 15 23 1019.4 - 0.0 - - - - - - -
27/09:00am 11.1 NNW 15 24 1019.6 - 0.0 - - - - - - -
27/08:30am 10.4 NW 13 19 1020.0 - 0.6 - - - - - - -
27/08:00am 10.1 NW 13 18 1019.9 - 0.6 - - - - - - -
27/07:30am 9.8 NNW 12 16 1019.6 - 0.6 - - - - - - -
27/07:00am 9.2 NNW 11 17 1019.5 - 0.6 - - - - - - -
27/06:30am 8.5 NNW 11 16 1019.3 - 0.6 - - - - - - -
27/06:00am 8.4 NNW 11 17 1019.1 - 0.6 - - - - - - -
27/05:30am 8.5 NNW 11 17 1019.5 - 0.6 - - - - - - -
27/05:00am 8.3 NNW 10 14 1019.3 - 0.6 - - - - - - -
27/04:30am 9.0 NW 15 19 1019.4 - 0.6 - - - - - - -
27/04:00am 9.3 NW 16 23 1019.4 - 0.6 - - - - - - -
27/03:34am 8.9 NNW 15 25 1019.3 - 0.6 - - - - - - -
27/03:30am 8.9 NNW 13 18 1019.2 - 0.6 - - - - - - -
27/03:00am 8.7 NW 14 20 1019.5 - 0.6 - - - - - - -
27/02:30am 8.3 NW 12 17 1019.7 - 0.6 - - - - - - -
27/02:00am 8.6 NNW 14 20 1019.8 - 0.6 - - - - - - -
27/01:30am 8.5 NNW 13 18 1019.5 - 0.6 - - - - - - -
27/01:00am 8.6 NNW 12 17 1020.1 - 0.6 - - - - - - -
27/12:30am 9.1 NNW 11 16 1020.5 - 0.6 - - - - - - -
27/12:00am 9.4 NNW 11 16 1020.5 - 0.6 - - - - - - -
 
Date/Time
CST
Temp
°C
Wind Pressure Rain since
9am
mm
Weather Cloud Vis
km
Sea
Height
m
Swell
Dir  Spd
kts
Gust
kts
hPa Trend Height
m
Period
s
Dir
26/11:30pm 9.4 NW 13 19 1020.7 - 0.6 - - - - - - -
26/11:00pm 9.1 NNW 11 17 1020.9 - 0.6 - - - - - - -
26/10:30pm 9.2 NNW 12 19 1021.1 - 0.6 - - - - - - -
26/10:00pm 9.5 NNW 11 14 1021.1 - 0.4 - - - - - - -
26/09:30pm 10.1 NW 12 17 1021.2 - 0.2 - - - - - - -
26/09:00pm 10.2 NW 13 20 1021.1 - 0.2 - - - - - - -
26/08:30pm 9.9 NW 12 16 1021.2 - 0.2 - - - - - - -
26/08:00pm 10.1 NW 11 14 1021.3 - 0.2 - - - - - - -
26/07:30pm 10.7 WNW 16 22 1021.0 - 0.2 - - - - - - -
26/07:00pm 10.5 NW 13 19 1021.0 - 0.2 - - - - - - -
26/06:30pm 10.4 WNW 17 23 1021.0 - 0.2 - - - - - - -
26/06:00pm 11.0 W 19 25 1020.7 - 0.2 - - - - - - -
26/05:30pm 10.5 NW 13 18 1020.5 - 0.0 - - - - - - -
26/05:00pm 11.3 WNW 17 23 1020.4 - 0.0 - - - - - - -
26/04:30pm 11.9 WNW 16 22 1020.3 - 0.0 - - - - - - -
26/04:00pm 12.2 W 19 27 1020.3 - 0.0 - - - - - - -
26/03:30pm 12.1 WNW 16 22 1020.2 - 0.0 - - - - - - -
26/03:00pm 12.1 WNW 14 19 1020.1 - 0.0 - - - - - - -
26/02:30pm 12.4 WNW 14 20 1020.1 - 0.0 - - - - - - -
26/02:00pm 11.8 WNW 17 24 1020.4 - 0.0 - - - - - - -
26/01:37pm 11.7 W 15 25 1020.4 - 0.0 - - - - - - -
26/01:30pm 11.8 W 14 22 1020.4 - 0.0 - - - - - - -
26/01:25pm 11.6 W 15 25 1020.4 - 0.0 - - - - - - -
26/01:00pm 12.2 WNW 16 23 1020.7 - 0.0 - - - - - - -
26/12:46pm 12.3 W 16 26 1020.8 - 0.0 - - - - - - -
26/12:30pm 12.5 WNW 15 22 1020.9 - 0.0 - - - - - - -
26/12:00pm 13.3 WNW 14 19 1021.2 - 0.0 - - - - - - -
26/11:30am 12.4 WNW 15 21 1021.5 - 0.0 - - - - - - -
26/11:00am 12.8 WNW 10 15 1021.8 - 0.0 - - - - - - -
26/10:30am 10.3 W 10 15 1022.0 - 0.0 - - - - - - -
26/10:00am 10.4 W 14 21 1022.1 - 0.0 - - - - - - -
26/09:30am 11.3 W 14 21 1021.9 - 0.0 - - - - - - -
26/09:00am 12.5 NW 11 17 1021.9 - 0.0 - - - - - - -
26/08:30am 11.5 W 13 19 1021.9 - 1.0 - - - - - - -
26/08:00am 11.4 W 13 19 1021.8 - 1.0 - - - - - - -
26/07:30am 10.7 W 16 22 1021.7 - 1.0 - - - - - - -
26/07:00am 10.8 WNW 10 15 1021.3 - 1.0 - - - - - - -
26/06:30am 10.7 W 7 12 1021.2 - 1.0 - - - - - - -
26/06:00am 10.8 W 10 13 1021.1 - 1.0 - - - - - - -
26/05:30am 10.4 NNE 9 15 1020.8 - 1.0 - - - - - - -
26/05:00am 10.6 WNW 12 19 1020.8 - 1.0 - - - - - - -
26/04:30am 10.8 W 11 19 1020.6 - 1.0 - - - - - - -
26/04:00am 10.6 W 13 21 1020.5 - 1.0 - - - - - - -
26/03:30am 10.5 W 12 16 1020.3 - 1.0 - - - - - - -
26/03:00am 10.5 W 13 19 1020.1 - 1.0 - - - - - - -
26/02:30am 10.5 WNW 10 18 1020.1 - 1.0 - - - - - - -
26/02:00am 10.8 W 12 17 1020.4 - 1.0 - - - - - - -
26/01:30am 10.9 W 13 18 1020.4 - 1.0 - - - - - - -
26/01:00am 10.9 WNW 8 15 1020.5 - 1.0 - - - - - - -
26/12:30am 10.8 NNW 8 12 1020.3 - 1.0 - - - - - - -
26/12:00am 10.7 NE 6 11 1020.3 - 1.0 - - - - - - -
 
Date/Time
CST
Temp
°C
Wind Pressure Rain since
9am
mm
Weather Cloud Vis
km
Sea
Height
m
Swell
Dir  Spd
kts
Gust
kts
hPa Trend Height
m
Period
s
Dir
25/11:30pm 10.6 NNE 6 11 1020.5 - 1.0 - - - - - - -
25/11:00pm 10.3 NNW 7 11 1020.5 - 1.0 - - - - - - -
25/10:30pm 10.7 W 12 16 1020.7 - 1.0 - - - - - - -
25/10:00pm 10.3 NNE 7 15 1020.8 - 1.0 - - - - - - -
25/09:30pm 10.4 NW 7 12 1020.8 - 1.0 - - - - - - -
25/09:00pm 9.8 NE 5 10 1020.8 - 1.0 - - - - - - -
25/08:30pm 10.6 N 7 10 1020.4 - 1.0 - - - - - - -
25/08:00pm 10.3 NNE 7 9 1020.4 - 1.0 - - - - - - -
25/07:30pm 10.1 NE 7 11 1020.1 - 1.0 - - - - - - -
25/07:00pm 10.3 ENE 7 11 1019.8 - 1.0 - - - - - - -
25/06:30pm 10.4 NE 8 13 1019.5 - 1.0 - - - - - - -
25/06:00pm 10.8 E 7 16 1019.2 - 1.0 - - - - - - -
25/05:30pm 10.5 N 6 12 1019.1 - 1.0 Recent precip. - - - - - -
25/05:00pm 10.2 SSE 6 17 1018.9 - 0.8 - - - - - - -
25/04:30pm 10.6 E 7 11 1018.4 - 0.8 - - - - - - -
25/04:00pm 11.2 NNE 8 12 1018.2 - 0.8 - - - - - - -
25/03:30pm 11.0 SE 8 15 1018.2 - 0.8 - - - - - - -
25/03:00pm 10.8 S 11 20 1018.1 - 0.4 - - - - - - -
25/02:30pm 12.1 SSE 10 18 1017.9 - 0.2 - - - - - - -
25/02:00pm 12.5 S 8 13 1017.8 - 0.2 - - - - - - -
25/01:30pm 12.2 SSE 7 12 1017.8 - 0.2 - - - - - - -
25/01:00pm 11.6 SSE 8 16 1017.8 - 0.2 - - - - - - -
25/12:30pm 12.4 S 9 14 1017.9 - 0.2 - - - - - - -
25/12:00pm 12.1 S 10 15 1017.9 - 0.2 - - - - - - -
25/11:30am 11.6 S 10 15 1018.0 - 0.2 - - - - - - -
25/11:00am 11.2 S 10 14 1018.0 - 0.2 - - - - - - -
25/10:30am 11.6 SE 7 11 1017.9 - 0.2 - - - - - - -
25/10:00am 11.4 S 12 17 1017.9 - 0.0 - - - - - - -
25/09:30am 10.7 S 15 21 1017.5 - 0.0 - - - - - - -
25/09:00am 11.1 S 15 21 1017.4 - 0.0 - - - - - - -
25/08:30am 10.8 S 12 18 1017.2 - 1.6 - - - - - - -
25/08:00am 10.2 S 11 18 1017.0 - 1.6 - - - - - - -
25/07:30am 10.1 S 15 21 1016.8 - 1.6 - - - - - - -
25/07:00am 9.6 S 15 21 1016.4 - 1.6 - - - - - - -
25/06:30am 9.3 S 17 24 1016.0 - 1.6 - - - - - - -
25/06:25am 9.1 S 15 24 1015.9 - 1.6 - - - - - - -
25/06:00am 8.8 SSE 8 13 1015.6 - 1.6 - - - - - - -
25/05:32am 8.5 S 16 26 1015.5 - 1.2 - - - - - - -
25/05:30am 8.7 S 17 26 1015.5 - 1.2 - - - - - - -
25/05:18am 9.1 S 16 26 1015.3 - 1.2 - - - - - - -
25/05:00am 9.0 S 16 20 1015.1 - 1.2 - - - - - - -
25/04:37am 9.1 S 15 25 1014.9 - 1.2 - - - - - - -
25/04:30am 8.9 S 12 19 1014.9 - 1.2 - - - - - - -
25/04:18am 9.3 ENE 11 29 1014.8 - 0.6 - - - - - - -
25/04:00am 9.1 NNE 8 15 1014.7 - 0.6 - - - - - - -
25/03:44am 10.4 S 15 24 1014.7 - 0.4 - - - - - - -
25/03:30am 10.4 SSE 10 16 1014.5 - 0.4 - - - - - - -
25/03:00am 10.6 S 12 22 1014.7 - 0.4 - - - - - - -
25/02:30am 10.7 S 14 21 1014.6 - 0.4 - - - - - - -
25/02:00am 10.2 S 12 19 1014.8 - 0.4 - - - - - - -
25/01:37am 10.4 S 15 25 1014.9 - 0.4 - - - - - - -
25/01:30am 10.4 S 15 25 1015.0 - 0.4 - - - - - - -
25/01:00am 10.6 S 17 24 1014.9 - 0.4 - - - - - - -
25/12:33am 10.7 S 15 26 1015.2 - 0.4 - - - - - - -
25/12:30am 10.5 SSE 13 21 1015.1 - 0.4 - - - - - - -
25/12:00am 9.8 SSE 11 20 1015.1 - 0.4 - - - - - - -
 
Date/Time
CST
Temp
°C
Wind Pressure Rain since
9am
mm
Weather Cloud Vis
km
Sea
Height
m
Swell
Dir  Spd
kts
Gust
kts
hPa Trend Height
m
Period
s
Dir
24/11:30pm 9.0 ENE 10 20 1015.3 - 0.2 Rain - - - - - -
24/11:00pm 10.0 W 14 20 1015.5 - 0.0 - - - - - - -
24/10:30pm 10.0 NNE 8 13 1015.6 - 0.0 - - - - - - -
24/10:00pm 9.7 NNE 8 15 1015.7 - 0.0 - - - - - - -
24/09:30pm 10.2 NE 7 10 1015.9 - 0.0 - - - - - - -
24/09:00pm 10.2 E 7 13 1016.1 - 0.0 - - - - - - -
24/08:30pm 10.5 SE 8 18 1016.1 - 0.0 - - - - - - -
24/08:00pm 10.5 S 9 16 1016.2 - 0.0 - - - - - - -
24/07:30pm 10.2 S 8 15 1016.3 - 0.0 - - - - - - -
24/07:00pm 9.9 S 12 18 1016.4 - 0.0 - - - - - - -
24/06:30pm 10.2 S 12 15 1016.3 - 0.0 - - - - - - -
24/06:00pm 10.1 S 12 18 1016.2 - 0.0 - - - - - - -
24/05:30pm 10.4 S 12 15 1016.0 - 0.0 - - - - - - -
24/05:00pm 10.3 S 10 16 1015.9 - 0.0 - - - - - - -
24/04:30pm 10.5 S 11 18 1015.8 - 0.0 - - - - - - -
24/04:00pm 10.5 S 10 16 1015.7 - 0.0 - - - - - - -

Other Formats:

Comma delimited format used in spreadsheet applications
http://www.bom.gov.au/fwo/IDS60701/IDS60701.94826.axf

JavaScript Object Notation format (JSON) in row-major order
http://www.bom.gov.au/fwo/IDS60701/IDS60701.94826.json